createdAt,value
2023-05-03T00:02:31.721Z,33.3
2023-05-03T00:08:10.053Z,33.3
2023-05-03T00:14:01.954Z,33.3
2023-05-03T00:20:04.946Z,33.3
2023-05-03T00:25:55.572Z,33.3
2023-05-03T00:31:47.309Z,33.3
2023-05-03T00:37:40.952Z,33.2
2023-05-03T00:43:16.650Z,33.2
2023-05-03T00:49:17.854Z,33.1
2023-05-03T00:55:08.554Z,33.1
2023-05-03T01:01:04.672Z,33.1
2023-05-03T01:06:41.991Z,33.1
2023-05-03T01:12:33.884Z,33.1
2023-05-03T01:18:25.480Z,33
2023-05-03T01:24:18.299Z,33
2023-05-03T01:30:09.423Z,32.9
2023-05-03T01:36:01.165Z,32.9
2023-05-03T01:41:37.043Z,32.9
2023-05-03T01:47:28.108Z,32.9
2023-05-03T01:53:19.315Z,32.9
2023-05-03T01:59:10.848Z,32.8
2023-05-03T02:05:03.327Z,32.8
2023-05-03T02:10:54.508Z,32.8
2023-05-03T02:16:45.685Z,32.8
2023-05-03T02:22:37.327Z,32.8
2023-05-03T02:28:29.200Z,32.8
2023-05-03T02:34:21.076Z,32.7
2023-05-03T02:39:56.940Z,32.8
2023-05-03T02:45:32.701Z,32.9
2023-05-03T02:51:09.637Z,32.8
2023-05-03T02:56:45.601Z,32.7
2023-05-03T03:02:36.832Z,32.6
2023-05-03T03:08:30.409Z,32.5
2023-05-03T03:14:22.215Z,32.4
2023-05-03T03:20:14.492Z,32.3
2023-05-03T03:26:05.841Z,32.3
2023-05-03T03:31:57.290Z,32.3
2023-05-03T03:37:36.612Z,32.2
2023-05-03T03:43:13.423Z,32.2
2023-05-03T03:49:04.883Z,32.1
2023-05-03T03:54:56.693Z,32.1
2023-05-03T04:00:48.191Z,32.1
2023-05-03T04:06:43.637Z,32.1
2023-05-03T04:12:35.472Z,32
2023-05-03T04:18:27.532Z,32
2023-05-03T04:24:19.090Z,31.9
2023-05-03T04:30:25.369Z,31.9
2023-05-03T04:36:17.865Z,31.9
2023-05-03T04:42:09.100Z,31.9
2023-05-03T04:48:00.294Z,31.9
2023-05-03T04:53:51.804Z,31.8
2023-05-03T04:59:42.478Z,31.8
2023-05-03T05:05:20.604Z,31.8
2023-05-03T05:10:41.445Z,31.8
2023-05-03T05:15:46.404Z,31.8
2023-05-03T05:21:09.356Z,31.7
2023-05-03T05:26:30.114Z,31.7
2023-05-03T05:32:06.625Z,31.7
2023-05-03T05:37:46.353Z,31.6
2023-05-03T05:43:23.145Z,31.6
2023-05-03T05:49:01.856Z,31.6
2023-05-03T05:54:47.167Z,31.6
2023-05-03T06:00:25.384Z,31.6
2023-05-03T06:06:02.069Z,31.6
2023-05-03T06:11:51.550Z,31.6
2023-05-03T06:17:40.745Z,31.5
2023-05-03T06:23:16.745Z,31.5
2023-05-03T06:28:55.002Z,31.5
2023-05-03T06:34:16.288Z,31.4
2023-05-03T06:39:52.521Z,31.4
2023-05-03T06:45:27.870Z,31.4
2023-05-03T06:51:08.220Z,31.4
2023-05-03T06:56:44.508Z,31.4
2023-05-03T07:02:36.918Z,31.4
2023-05-03T07:08:31.426Z,31.4
2023-05-03T07:14:19.118Z,31.3
2023-05-03T07:20:12.753Z,31.3
2023-05-03T07:25:49.281Z,31.3
2023-05-03T07:31:10.270Z,31.3
2023-05-03T07:36:31.417Z,31.3
2023-05-03T07:42:08.856Z,31.3
2023-05-03T07:47:45.024Z,31.3
2023-05-03T07:53:21.077Z,31.2
2023-05-03T07:59:24.641Z,31.2
2023-05-03T08:05:06.018Z,31.2
2023-05-03T08:10:42.853Z,31.2
2023-05-03T08:16:18.968Z,31.2
2023-05-03T08:21:54.720Z,31.1
2023-05-03T08:27:30.456Z,31.1
2023-05-03T08:33:09.333Z,31.1
2023-05-03T08:38:45.308Z,25.9
2023-05-03T08:44:22.165Z,34.7
2023-05-03T08:49:59.687Z,33.8
2023-05-03T08:55:36.323Z,46.1
2023-05-03T09:01:12.944Z,46.1
2023-05-03T09:06:35.695Z,46.4
2023-05-03T09:12:14.781Z,44.4
2023-05-03T09:17:51.424Z,42.9
2023-05-03T09:23:28.628Z,43
2023-05-03T09:29:05.072Z,45.1
2023-05-03T09:34:41.352Z,46.6
2023-05-03T09:40:17.809Z,45.7
2023-05-03T09:45:54.618Z,44.4
2023-05-03T09:51:31.230Z,44.9
2023-05-03T09:56:54.341Z,47.3
2023-05-03T10:02:31.631Z,48.6
2023-05-03T10:07:53.417Z,51.4
2023-05-03T10:13:29.945Z,52.5
2023-05-03T10:19:22.413Z,52
2023-05-03T10:24:59.243Z,50.6
2023-05-03T10:30:38.689Z,50.8
2023-05-03T10:36:15.479Z,53.6
2023-05-03T10:42:10.458Z,51.3
2023-05-03T10:47:47.537Z,51.1
2023-05-03T10:53:39.381Z,52.1
2023-05-03T10:59:18.454Z,49.7
2023-05-03T11:04:55.623Z,48.9
2023-05-03T11:10:50.843Z,47.5
2023-05-03T11:16:43.627Z,46.6
2023-05-03T11:22:37.722Z,46.3
2023-05-03T11:28:30.715Z,48.3
2023-05-03T11:34:22.206Z,50.4
2023-05-03T11:40:13.813Z,48.5
2023-05-03T11:46:19.338Z,46.9
2023-05-03T11:52:12.475Z,46.4
2023-05-03T11:58:20.098Z,49.6
2023-05-03T12:04:17.773Z,49.1
2023-05-03T12:10:26.641Z,48.7
2023-05-03T12:17:00.843Z,49.8
2023-05-03T12:24:50.071Z,52.1
2023-05-03T12:38:02.582Z,47.3
2023-05-03T12:44:42.123Z,45.8
2023-05-03T12:51:32.880Z,44.6
2023-05-03T12:58:58.318Z,42.6
2023-05-03T13:07:21.392Z,40.3
2023-05-03T13:14:00.527Z,39.1
2023-05-03T13:19:41.221Z,38.4
2023-05-03T13:26:47.650Z,37.8
2023-05-03T13:32:25.515Z,37.3
2023-05-03T13:38:01.679Z,37
2023-05-03T13:43:38.401Z,36.8
2023-05-03T13:49:44.570Z,36.4
2023-05-03T13:55:37.589Z,36.3
2023-05-03T14:01:14.871Z,36.1
2023-05-03T14:07:12.340Z,35.9
2023-05-03T14:12:49.298Z,35.8
2023-05-03T14:18:56.119Z,35.7
2023-05-03T14:24:35.268Z,35.6
2023-05-03T14:30:13.001Z,35.5
2023-05-03T14:35:51.219Z,35.4
2023-05-03T14:41:45.758Z,35.3
2023-05-03T14:47:24.586Z,35.2
2023-05-03T14:53:06.383Z,35.1
2023-05-03T14:58:44.504Z,35
2023-05-03T15:04:07.795Z,34.9
2023-05-03T15:10:02.075Z,34.8
2023-05-03T15:15:58.489Z,34.8
2023-05-03T15:21:52.499Z,34.6
2023-05-03T15:27:46.963Z,34.6
2023-05-03T15:33:43.011Z,34.4
2023-05-03T15:39:38.988Z,34.4
2023-05-03T15:45:32.945Z,34.3
2023-05-03T15:51:31.368Z,34.3
2023-05-03T15:57:10.022Z,34.2
2023-05-03T16:03:06.296Z,34.1
2023-05-03T16:09:01.735Z,34.1
2023-05-03T16:14:55.389Z,34
2023-05-03T16:20:51.055Z,33.9
2023-05-03T16:26:49.724Z,33.9
2023-05-03T16:32:45.937Z,33.8
2023-05-03T16:38:40.993Z,33.8
2023-05-03T16:44:39.017Z,33.7
2023-05-03T16:50:37.297Z,33.6
2023-05-03T16:56:34.486Z,33.6
2023-05-03T17:02:34.041Z,33.5
2023-05-03T17:08:34.292Z,33.4
2023-05-03T17:14:33.980Z,33.4
2023-05-03T17:20:34.241Z,33.3
2023-05-03T17:26:30.577Z,33.3
2023-05-03T17:32:28.189Z,33.2
2023-05-03T17:38:25.582Z,33.2
2023-05-03T17:44:24.771Z,33.1
2023-05-03T17:50:23.419Z,33.1
2023-05-03T17:56:22.401Z,33.1
2023-05-03T18:02:20.726Z,33.1
2023-05-03T18:08:19.713Z,33
2023-05-03T18:14:18.232Z,32.9
2023-05-03T18:20:16.115Z,32.9
2023-05-03T18:26:14.954Z,32.9
2023-05-03T18:32:12.966Z,32.9
2023-05-03T18:38:12.327Z,32.8
2023-05-03T18:44:12.264Z,32.8
2023-05-03T18:50:11.192Z,32.8
2023-05-03T18:56:09.553Z,32.7
2023-05-03T19:02:24.621Z,32.7
2023-05-03T19:08:23.136Z,32.7
2023-05-03T19:14:21.816Z,32.6
2023-05-03T19:20:19.974Z,32.6
2023-05-03T19:26:17.754Z,32.6
2023-05-03T19:32:15.974Z,32.6
2023-05-03T19:38:15.122Z,32.5
2023-05-03T19:43:57.155Z,32.4
2023-05-03T19:49:40.123Z,32.4
2023-05-03T19:55:37.474Z,32.4
2023-05-03T20:01:20.141Z,32.4
2023-05-03T20:07:02.338Z,32.4
2023-05-03T20:12:43.888Z,32.3
2023-05-03T20:18:27.088Z,32.3
2023-05-03T20:24:09.567Z,32.3
2023-05-03T20:29:51.837Z,32.3
2023-05-03T20:35:34.100Z,32.2
2023-05-03T20:41:15.267Z,32.2
2023-05-03T20:46:57.531Z,32.1
2023-05-03T20:52:39.831Z,32.1
2023-05-03T20:58:21.674Z,32.1
2023-05-03T21:04:06.253Z,32.1
2023-05-03T21:09:33.736Z,32.1
2023-05-03T21:15:17.352Z,32.1
2023-05-03T21:21:16.568Z,32
2023-05-03T21:27:01.759Z,32
2023-05-03T21:32:59.578Z,31.9
2023-05-03T21:38:57.830Z,31.9
2023-05-03T21:45:07.934Z,31.9
2023-05-03T21:51:05.289Z,31.9
2023-05-03T21:57:02.438Z,31.8
2023-05-03T22:02:58.779Z,31.8
2023-05-03T22:08:54.602Z,31.8
2023-05-03T22:15:26.148Z,31.8
2023-05-03T22:21:20.738Z,31.8
2023-05-03T22:27:13.640Z,31.7
2023-05-03T22:33:08.513Z,31.7
2023-05-03T22:39:02.476Z,31.6
2023-05-03T22:44:57.009Z,31.6
2023-05-03T22:50:51.881Z,31.6
2023-05-03T22:56:28.727Z,31.6
2023-05-03T23:02:21.512Z,31.6
2023-05-03T23:08:13.995Z,31.6
2023-05-03T23:14:05.322Z,31.5
2023-05-03T23:19:59.169Z,31.4
2023-05-03T23:25:50.780Z,31.4
2023-05-03T23:31:53.004Z,31.4
2023-05-03T23:37:47.721Z,31.4
2023-05-03T23:43:39.899Z,31.4
2023-05-03T23:49:49.602Z,31.4
2023-05-03T23:55:41.627Z,31.3
